Current | Forecast
Updated: 5:30 PM +10 on February 19, 2018
Observed at Yuzhno-Sakhalinsk, Russia
Temperature 18°F
Windchill 11°F
Humidity 79%
Dew Point 12°F
Wind SSW at 4 mph
Pressure 29.77 in (Steady)
Conditions Mostly Cloudy
Visibility 6.2 miles
UV 0 out of 16
Clouds Mostly Cloudy (BKN) : 4000 ft
Yesterday's Maximum 16°F
Yesterday's Minimum -9°F approx.
Yesterday's Heating Degree Days 62 approx.
Sunrise7:30 AM +10
Sunset6:02 PM +10
Moon Rise9:11 AM +10
Moon Set9:31 PM +10
Moon PhaseMoon Phase
Waxing Crescent
Raw METARMETAR UHSS 190730Z 20002MPS 9999 BKN040CB M08/M11 Q1008 R19/420355 NOSIG RMK QFE755/1007


Monday
. High: 51° F.
Tuesday
. High: 50° F.
Wednesday
. High: 51° F.
Thursday
. High: 51° F.
Friday
. High: 48° F.
Saturday
. High: 53° F.
Sunday
. High: 46° F.
Monday
. High: 50° F.

Units: English | Metric

Find the Weather for any City, State or Zipcode, or Country:

U.S. State List | Severe Weather | Tropical Storms | Ski Conditions
United States | Canada | Central America | South America | Asia | Europe | Australia | Africa | Islands

Weather Underground

© Copyright 2018
The Weather Company, LLC